createdAt,value
2022-12-01T05:01:13.266Z,8.90
2022-12-01T05:03:45.778Z,6.40
2022-12-01T05:06:18.561Z,6.30
2022-12-01T05:08:50.536Z,6.30
2022-12-01T05:11:22.303Z,6.30
2022-12-01T05:13:54.028Z,6.30
2022-12-01T05:16:28.240Z,6.30
2022-12-01T05:19:01.111Z,6.30
2022-12-01T05:21:32.880Z,6.30
2022-12-01T05:24:05.535Z,6.30
2022-12-01T05:26:37.308Z,6.30
2022-12-01T05:29:10.262Z,6.30
2022-12-01T05:31:44.625Z,6.30
2022-12-01T05:34:16.504Z,6.30
2022-12-01T05:36:48.216Z,6.30
2022-12-01T05:39:19.941Z,6.30
2022-12-01T05:41:51.601Z,6.30
2022-12-01T05:44:23.271Z,6.30
2022-12-01T05:46:56.254Z,6.30
2022-12-01T05:49:27.940Z,6.30
2022-12-01T05:51:59.585Z,6.30
2022-12-01T05:54:31.256Z,6.30
2022-12-01T05:57:02.988Z,6.30
2022-12-01T05:59:34.632Z,6.40
2022-12-01T06:02:07.634Z,6.50
2022-12-01T06:04:39.304Z,6.50
2022-12-01T06:07:10.984Z,6.50
2022-12-01T06:09:42.633Z,6.60
2022-12-01T06:12:14.272Z,6.60
2022-12-01T06:14:45.909Z,6.60
2022-12-01T06:17:18.942Z,6.50
2022-12-01T06:19:50.823Z,6.40
2022-12-01T06:22:22.705Z,6.40
2022-12-01T06:24:54.356Z,6.30
2022-12-01T06:27:25.996Z,6.30
2022-12-01T06:29:57.654Z,6.30
2022-12-01T06:32:30.627Z,6.30
2022-12-01T06:35:02.317Z,6.30
2022-12-01T06:37:33.943Z,6.30
2022-12-01T06:40:07.078Z,6.30
2022-12-01T06:42:38.737Z,6.30
2022-12-01T06:45:11.179Z,6.20
2022-12-01T06:47:44.174Z,6.20
2022-12-01T06:50:16.059Z,6.30
2022-12-01T06:52:47.703Z,6.30
2022-12-01T06:55:19.367Z,6.30
2022-12-01T06:57:51.167Z,6.30
2022-12-01T07:00:23.370Z,6.40
2022-12-01T07:02:56.485Z,6.40
2022-12-01T07:05:28.280Z,6.50
2022-12-01T07:08:00.060Z,6.40
2022-12-01T07:10:31.839Z,6.40
2022-12-01T07:13:03.508Z,6.40
2022-12-01T07:15:35.184Z,6.30
2022-12-01T07:18:08.165Z,6.50
2022-12-01T07:20:39.836Z,6.40
2022-12-01T07:23:11.520Z,6.30
2022-12-01T07:25:43.173Z,6.30
2022-12-01T07:28:14.822Z,6.30
2022-12-01T07:30:46.511Z,6.30
2022-12-01T07:33:19.520Z,6.40
2022-12-01T07:35:53.249Z,6.70
2022-12-01T07:38:25.072Z,6.60
2022-12-01T07:41:01.645Z,6.60
2022-12-01T07:43:33.487Z,6.60
2022-12-01T07:46:06.723Z,6.60
2022-12-01T07:48:40.047Z,6.50
2022-12-01T07:51:12.897Z,6.40
2022-12-01T07:53:44.712Z,6.30
2022-12-01T07:56:16.561Z,6.30
2022-12-01T07:58:48.284Z,6.30
2022-12-01T08:01:20.735Z,6.40
2022-12-01T08:03:54.730Z,6.50
2022-12-01T08:06:26.558Z,6.60
2022-12-01T08:08:58.221Z,6.70
2022-12-01T08:11:29.947Z,6.70
2022-12-01T08:14:01.618Z,6.70
2022-12-01T08:16:33.271Z,6.70
2022-12-01T08:19:06.272Z,6.70
2022-12-01T08:21:37.964Z,6.70
2022-12-01T08:24:09.944Z,6.70
2022-12-01T08:26:41.673Z,6.60
2022-12-01T08:29:18.544Z,6.60
2022-12-01T08:31:51.718Z,6.60
2022-12-01T08:34:24.709Z,6.60
2022-12-01T08:36:56.395Z,6.60
2022-12-01T08:39:28.033Z,6.60
2022-12-01T08:41:59.691Z,6.60
2022-12-01T08:44:31.352Z,6.60
2022-12-01T08:47:03.095Z,6.70
2022-12-01T08:49:36.097Z,6.80
2022-12-01T08:52:07.769Z,6.70
2022-12-01T08:54:39.467Z,6.70
2022-12-01T08:57:11.131Z,6.70
2022-12-01T08:59:42.788Z,6.70
2022-12-01T09:02:14.831Z,6.70
2022-12-01T09:04:47.945Z,6.70
2022-12-01T09:07:25.900Z,6.70
2022-12-01T09:09:58.378Z,6.80
2022-12-01T09:12:30.096Z,6.80
2022-12-01T09:15:01.729Z,6.80
2022-12-01T09:17:33.366Z,6.70
2022-12-01T09:20:08.805Z,6.70
2022-12-01T09:22:40.522Z,6.70
2022-12-01T09:25:12.181Z,6.70
2022-12-01T09:27:43.869Z,6.60
2022-12-01T09:30:15.836Z,6.60
2022-12-01T09:32:47.491Z,6.60
2022-12-01T09:35:23.371Z,6.60
2022-12-01T09:37:55.410Z,6.60
2022-12-01T09:40:30.137Z,6.60
2022-12-01T09:43:03.416Z,6.70
2022-12-01T09:45:38.453Z,6.80
2022-12-01T09:48:13.740Z,6.80
2022-12-01T09:50:46.723Z,6.80
2022-12-01T09:53:21.105Z,6.90
2022-12-01T09:55:52.734Z,6.90
2022-12-01T09:58:25.545Z,6.90
2022-12-01T10:00:57.224Z,6.90
2022-12-01T10:03:32.070Z,6.90
2022-12-01T10:09:02.358Z,7.00
2022-12-01T10:11:35.474Z,7.10
2022-12-01T10:14:13.000Z,7.10
2022-12-01T10:16:52.781Z,7.10
2022-12-01T10:19:28.177Z,7.10
2022-12-01T10:22:09.958Z,7.10
2022-12-01T10:24:51.019Z,7.00
2022-12-01T10:27:32.774Z,6.60
2022-12-01T10:30:05.664Z,6.90
2022-12-01T10:32:42.902Z,6.90
2022-12-01T10:35:15.952Z,6.90
2022-12-01T10:37:51.171Z,6.90
2022-12-01T10:40:22.899Z,6.90
2022-12-01T10:42:54.677Z,6.80
2022-12-01T10:45:27.148Z,6.90
2022-12-01T10:48:10.148Z,7.00
2022-12-01T10:50:42.378Z,7.00
2022-12-01T10:53:26.777Z,7.00
2022-12-01T10:56:09.649Z,7.10
2022-12-01T10:58:44.074Z,7.10
2022-12-01T11:01:17.880Z,7.00
2022-12-01T11:03:51.055Z,7.00
2022-12-01T11:06:24.777Z,7.00
2022-12-01T11:08:59.012Z,7.10
2022-12-01T11:11:32.078Z,7.10
2022-12-01T11:14:07.367Z,7.20
2022-12-01T11:16:41.063Z,7.40
2022-12-01T11:19:27.011Z,7.20
2022-12-01T11:22:00.122Z,7.20
2022-12-01T11:24:42.007Z,7.20
2022-12-01T11:27:15.928Z,7.20
2022-12-01T11:29:49.103Z,7.20
2022-12-01T11:32:22.068Z,7.10
2022-12-01T11:34:55.463Z,7.00
2022-12-01T11:37:29.541Z,7.00
2022-12-01T11:40:13.378Z,6.90
2022-12-01T11:42:47.299Z,6.80
2022-12-01T11:45:27.259Z,6.80
2022-12-01T11:48:04.294Z,6.80
2022-12-01T11:50:37.378Z,6.70
2022-12-01T11:53:25.816Z,6.70
2022-12-01T11:56:15.022Z,6.80
2022-12-01T11:58:48.046Z,6.80
2022-12-01T12:01:25.447Z,7.00
2022-12-01T12:04:02.218Z,6.80
2022-12-01T12:06:40.271Z,6.80
2022-12-01T12:09:43.373Z,6.80
2022-12-01T12:12:24.964Z,6.80
2022-12-01T12:15:01.045Z,6.80
2022-12-01T12:17:49.389Z,6.90
2022-12-01T12:20:28.979Z,6.90
2022-12-01T12:23:13.691Z,6.90
2022-12-01T12:25:51.100Z,6.90
2022-12-01T12:28:31.394Z,6.90
2022-12-01T12:31:07.273Z,7.00
2022-12-01T12:33:48.284Z,6.90
2022-12-01T12:36:23.767Z,6.90
2022-12-01T12:39:03.283Z,7.00
2022-12-01T12:41:36.546Z,6.90
2022-12-01T12:44:25.728Z,6.90
2022-12-01T12:47:00.581Z,6.90
2022-12-01T12:49:36.904Z,6.90
2022-12-01T12:52:11.723Z,6.80
2022-12-01T12:54:45.877Z,6.90
2022-12-01T12:57:21.767Z,6.90
2022-12-01T12:59:57.064Z,6.90
2022-12-01T13:02:33.013Z,6.80
2022-12-01T13:05:07.057Z,6.80
2022-12-01T13:07:41.761Z,6.80
2022-12-01T13:10:20.473Z,6.80
2022-12-01T13:12:56.288Z,6.70
2022-12-01T13:15:29.362Z,6.80
2022-12-01T13:18:03.322Z,6.70
2022-12-01T13:20:34.987Z,6.70
2022-12-01T13:23:06.673Z,6.70
2022-12-01T13:25:39.230Z,6.70
2022-12-01T13:28:14.380Z,6.70
2022-12-01T13:31:02.842Z,6.70
2022-12-01T13:33:34.674Z,6.70
2022-12-01T13:36:44.709Z,6.80
2022-12-01T13:39:01.693Z,6.80
2022-12-01T13:41:33.862Z,6.80
2022-12-01T13:44:07.044Z,6.80
2022-12-01T13:46:52.490Z,6.80
2022-12-01T13:49:36.491Z,6.80
2022-12-01T13:52:28.726Z,6.80
2022-12-01T13:55:28.100Z,6.70
2022-12-01T13:58:22.359Z,6.70
2022-12-01T14:00:54.075Z,6.70
2022-12-01T14:03:40.407Z,6.80
2022-12-01T14:06:21.075Z,6.80
2022-12-01T14:08:53.301Z,6.80
2022-12-01T14:11:25.638Z,6.80
2022-12-01T14:13:59.588Z,6.80
2022-12-01T14:16:45.813Z,6.80
2022-12-01T14:19:32.881Z,6.80
2022-12-01T14:22:05.443Z,6.80
2022-12-01T14:24:38.061Z,6.80
2022-12-01T14:27:09.719Z,6.70
2022-12-01T14:29:41.500Z,6.70
2022-12-01T14:32:22.539Z,6.70
2022-12-01T14:35:03.958Z,6.70
2022-12-01T14:37:47.912Z,6.60
2022-12-01T14:40:23.625Z,6.60
2022-12-01T14:42:56.009Z,6.60
2022-12-01T14:45:31.386Z,6.60
2022-12-01T14:48:04.219Z,6.60
2022-12-01T14:50:45.028Z,6.60
2022-12-01T14:53:22.492Z,6.50
2022-12-01T14:55:55.833Z,6.50
2022-12-01T14:58:28.156Z,6.50
2022-12-01T15:01:02.967Z,6.50
2022-12-01T15:03:37.897Z,6.50
2022-12-01T15:06:10.936Z,6.50
2022-12-01T15:08:53.123Z,6.50
2022-12-01T15:11:25.901Z,6.50
2022-12-01T15:13:57.684Z,6.50
2022-12-01T15:16:30.261Z,6.50
2022-12-01T15:19:01.987Z,6.40
2022-12-01T15:21:35.004Z,6.40
2022-12-01T15:24:20.372Z,6.40
2022-12-01T15:26:52.770Z,6.40
2022-12-01T15:29:25.256Z,6.30
2022-12-01T15:31:58.850Z,6.30
2022-12-01T15:34:32.204Z,6.30
2022-12-01T15:37:05.260Z,6.20
2022-12-01T15:39:37.290Z,6.20
2022-12-01T15:42:15.400Z,6.20
2022-12-01T15:44:46.917Z,6.10
2022-12-01T15:47:31.059Z,6.10
2022-12-01T15:50:02.758Z,6.10
2022-12-01T15:52:40.427Z,6.10
2022-12-01T15:55:12.657Z,6.10
2022-12-01T15:57:45.784Z,6.00
2022-12-01T16:00:18.398Z,6.00
2022-12-01T16:02:50.430Z,6.00
2022-12-01T16:05:24.003Z,6.10
2022-12-01T16:08:13.617Z,6.80
2022-12-01T16:10:45.501Z,6.00
2022-12-01T16:13:41.245Z,6.00
2022-12-01T16:16:36.748Z,6.00
2022-12-01T16:19:27.448Z,6.00
2022-12-01T16:22:00.610Z,6.00
2022-12-01T16:24:33.954Z,6.00
2022-12-01T16:27:05.818Z,6.00
2022-12-01T16:29:46.263Z,6.00
2022-12-01T16:32:20.644Z,6.00
2022-12-01T16:34:52.408Z,6.10
2022-12-01T16:37:23.938Z,6.10
2022-12-01T16:39:56.795Z,6.10
2022-12-01T16:42:28.318Z,6.10
2022-12-01T16:44:59.827Z,6.10
2022-12-01T16:47:31.454Z,6.00
2022-12-01T16:50:03.144Z,6.00
2022-12-01T16:52:50.051Z,6.00
2022-12-01T16:55:25.471Z,6.00
2022-12-01T16:57:56.984Z,6.00
2022-12-01T17:00:28.510Z,6.00
2022-12-01T17:03:00.086Z,6.00
2022-12-01T17:05:31.996Z,6.00
2022-12-01T17:08:03.791Z,6.00
2022-12-01T17:10:38.936Z,6.00
2022-12-01T17:13:10.587Z,6.10
2022-12-01T17:15:42.330Z,6.00
2022-12-01T17:18:14.011Z,6.00
2022-12-01T17:20:45.538Z,6.00
2022-12-01T17:23:17.033Z,6.10
2022-12-01T17:25:49.906Z,6.10
2022-12-01T17:28:21.423Z,6.10
2022-12-01T17:30:52.983Z,6.10
2022-12-01T17:33:24.534Z,6.10
2022-12-01T17:35:58.828Z,6.10
2022-12-01T17:38:30.399Z,6.10
2022-12-01T17:41:04.211Z,6.10
2022-12-01T17:43:36.355Z,6.10
2022-12-01T17:46:08.301Z,6.10
2022-12-01T17:48:41.185Z,6.10
2022-12-01T17:51:12.888Z,6.10
2022-12-01T17:53:44.407Z,6.10
2022-12-01T17:56:17.270Z,6.10
2022-12-01T17:58:48.768Z,6.10
2022-12-01T18:01:22.141Z,6.10
2022-12-01T18:03:57.013Z,6.10
2022-12-01T18:06:28.748Z,6.10
2022-12-01T18:09:00.430Z,6.10
2022-12-01T18:11:33.319Z,6.10
2022-12-01T18:14:04.826Z,6.10
2022-12-01T18:16:36.567Z,6.00
2022-12-01T18:19:08.618Z,6.00
2022-12-01T18:21:40.249Z,6.10
2022-12-01T18:24:11.760Z,6.00
2022-12-01T18:26:44.651Z,6.00
2022-12-01T18:29:16.702Z,6.00
2022-12-01T18:31:48.243Z,6.00
2022-12-01T18:34:19.754Z,6.00
2022-12-01T18:36:51.304Z,6.00
2022-12-01T18:39:22.876Z,5.90
2022-12-01T18:41:55.763Z,6.00
2022-12-01T18:44:27.310Z,5.90
2022-12-01T18:46:59.054Z,6.00
2022-12-01T18:49:30.615Z,6.00
2022-12-01T18:52:02.140Z,5.90
2022-12-01T18:54:33.662Z,5.90
2022-12-01T18:57:06.578Z,5.90
2022-12-01T18:59:38.078Z,5.90
2022-12-01T19:02:09.710Z,5.90
2022-12-01T19:04:41.382Z,5.90
2022-12-01T19:07:12.919Z,5.80
2022-12-01T19:09:44.428Z,5.80
2022-12-01T19:12:17.331Z,5.90
2022-12-01T19:14:49.135Z,5.80
2022-12-01T19:17:20.860Z,5.70
2022-12-01T19:19:52.373Z,5.70
2022-12-01T19:22:23.906Z,5.70
2022-12-01T19:24:56.336Z,5.60
2022-12-01T19:27:29.675Z,5.50
2022-12-01T19:30:01.195Z,5.50
2022-12-01T19:32:32.960Z,5.50
2022-12-01T19:35:04.791Z,5.40
2022-12-01T19:37:36.325Z,5.40
2022-12-01T19:40:08.335Z,5.40
2022-12-01T19:42:41.258Z,5.40
2022-12-01T19:45:12.752Z,5.30
2022-12-01T19:47:44.328Z,5.20
2022-12-01T19:50:15.838Z,5.20
2022-12-01T19:52:47.356Z,5.10
2022-12-01T19:55:18.875Z,5.10
2022-12-01T19:57:51.781Z,5.00
2022-12-01T20:00:23.304Z,5.00
2022-12-01T20:02:54.823Z,5.00
2022-12-01T20:05:26.324Z,5.00
2022-12-01T20:07:57.915Z,5.00
2022-12-01T20:10:29.463Z,4.90
2022-12-01T20:13:02.371Z,4.90
2022-12-01T20:15:33.930Z,4.90
2022-12-01T20:18:05.540Z,4.90
2022-12-01T20:20:37.028Z,4.90
2022-12-01T20:23:08.572Z,4.90
2022-12-01T20:25:40.090Z,4.80
2022-12-01T20:28:12.971Z,4.90
2022-12-01T20:30:44.474Z,4.80
2022-12-01T20:33:16.016Z,4.90
2022-12-01T20:35:47.530Z,4.90
2022-12-01T20:38:24.299Z,4.80
2022-12-01T20:40:58.703Z,4.80
2022-12-01T20:43:31.559Z,4.80
2022-12-01T20:46:03.595Z,4.80
2022-12-01T20:48:35.198Z,4.80
2022-12-01T20:51:06.946Z,4.80
2022-12-01T20:53:38.483Z,4.80
2022-12-01T20:56:10.364Z,4.80
2022-12-01T20:58:43.256Z,4.80
2022-12-01T21:01:15.149Z,4.80
2022-12-01T21:03:46.711Z,4.80
2022-12-01T21:06:18.198Z,4.70
2022-12-01T21:08:49.906Z,4.70
2022-12-01T21:11:22.167Z,4.70
2022-12-01T21:13:55.041Z,4.70
2022-12-01T21:16:26.831Z,4.70
2022-12-01T21:18:59.235Z,4.70
2022-12-01T21:21:31.138Z,4.70
2022-12-01T21:24:08.566Z,4.70
2022-12-01T21:26:40.530Z,4.70
2022-12-01T21:29:20.669Z,4.70
2022-12-01T21:31:52.908Z,4.70
2022-12-01T21:34:25.010Z,4.80
2022-12-01T21:36:57.728Z,4.80
2022-12-01T21:39:29.240Z,4.80
2022-12-01T21:42:05.126Z,4.80
2022-12-01T21:44:37.988Z,4.80
2022-12-01T21:47:12.434Z,4.80
2022-12-01T21:49:43.942Z,4.80
2022-12-01T21:52:16.613Z,4.70
2022-12-01T21:54:48.429Z,4.70
2022-12-01T21:57:24.962Z,4.70
2022-12-01T21:59:59.048Z,4.70
2022-12-01T22:02:31.815Z,4.70
2022-12-01T22:05:09.859Z,4.60
2022-12-01T22:07:41.428Z,4.70
2022-12-01T22:10:27.876Z,4.60
2022-12-01T22:12:59.393Z,4.60
2022-12-01T22:15:38.384Z,4.60
2022-12-01T22:18:12.034Z,4.60
2022-12-01T22:20:43.540Z,4.60
2022-12-01T22:23:15.128Z,4.60
2022-12-01T22:25:46.664Z,4.60
2022-12-01T22:28:19.813Z,4.50
2022-12-01T22:30:52.789Z,4.50
2022-12-01T22:33:24.320Z,4.60
2022-12-01T22:35:55.852Z,4.60
2022-12-01T22:38:29.724Z,4.60
2022-12-01T22:41:02.480Z,4.60
2022-12-01T22:43:46.728Z,4.50
2022-12-01T22:46:23.590Z,4.60
2022-12-01T22:48:55.662Z,4.50
2022-12-01T22:51:44.908Z,4.50
2022-12-01T22:54:26.307Z,4.50
2022-12-01T22:57:02.443Z,4.50
2022-12-01T22:59:34.131Z,4.50
